WZZ67 EPKK-EYVI
Flight info
| Callsign | WZZ67 |
|---|---|
| Flight time | 0h 50m |
| Altitude | 33000 |
| Route | POBOK M985 KOTEK DCT EVODO DCT OFEDE DCT LIZUP DCT DIMTA |
| Aircraft | A320/M-SDE3FGHIRWY/LB1 |
Departure
| Time | 2026-05-07 13:35 |
|---|---|
| Airport | Kraków John Paul II International Airport (EPKK) |
Arrival
| Time | 2026-05-07 14:26 |
|---|---|
| Airport | Vilnius International Airport (EYVI) |
| Time | Latitude | Longitude | Altitude | Speed | Heading |
|---|---|---|---|---|---|
| 2026-05-07 13:08 | 50.07538 | 19.79837 | 800 ft | 0 kts | 77° |
| 2026-05-07 13:28 | 50.07538 | 19.79839 | 800 ft | 0 kts | 77° |
| 2026-05-07 13:28 | 50.07541 | 19.79860 | 800 ft | 6 kts | 77° |
| 2026-05-07 13:28 | 50.07594 | 19.79905 | 800 ft | 13 kts | 353° |
| 2026-05-07 13:29 | 50.07706 | 19.79893 | 800 ft | 17 kts | 35° |
| 2026-05-07 13:29 | 50.07738 | 19.80050 | 800 ft | 14 kts | 77° |
| 2026-05-07 13:29 | 50.07757 | 19.80188 | 800 ft | 12 kts | 78° |
| 2026-05-07 13:29 | 50.07773 | 19.80302 | 800 ft | 10 kts | 72° |
| 2026-05-07 13:30 | 50.07822 | 19.80344 | 800 ft | 7 kts | 1° |
| 2026-05-07 13:30 | 50.07840 | 19.80338 | 800 ft | 0 kts | 345° |
| 2026-05-07 13:31 | 50.07843 | 19.80337 | 800 ft | 4 kts | 345° |
| 2026-05-07 13:32 | 50.07930 | 19.80308 | 800 ft | 19 kts | 349° |
| 2026-05-07 13:32 | 50.08012 | 19.80197 | 800 ft | 15 kts | 265° |
| 2026-05-07 13:32 | 50.08004 | 19.80147 | 801 ft | 0 kts | 256° |
| 2026-05-07 13:34 | 50.07980 | 19.79976 | 801 ft | 50 kts | 258° |
| 2026-05-07 13:34 | 50.07855 | 19.79084 | 801 ft | 115 kts | 257° |
| 2026-05-07 13:35 | 50.07652 | 19.77606 | 939 ft | 152 kts | 260° |
| 2026-05-07 13:35 | 50.07434 | 19.76003 | 1585 ft | 153 kts | 260° |
| 2026-05-07 13:35 | 50.07210 | 19.74375 | 2113 ft | 160 kts | 258° |
| 2026-05-07 13:35 | 50.06973 | 19.72661 | 2657 ft | 169 kts | 258° |
| 2026-05-07 13:36 | 50.06709 | 19.70742 | 2906 ft | 194 kts | 258° |
| 2026-05-07 13:36 | 50.06402 | 19.68562 | 3269 ft | 218 kts | 257° |
| 2026-05-07 13:36 | 50.06105 | 19.66183 | 3915 ft | 228 kts | 266° |
| 2026-05-07 13:36 | 50.06537 | 19.63811 | 4741 ft | 239 kts | 302° |
| 2026-05-07 13:37 | 50.07906 | 19.62135 | 5232 ft | 267 kts | 334° |
| 2026-05-07 13:37 | 50.09731 | 19.61353 | 5998 ft | 277 kts | 347° |
| 2026-05-07 13:37 | 50.11673 | 19.61140 | 6798 ft | 286 kts | 5° |
| 2026-05-07 13:37 | 50.13616 | 19.61953 | 7620 ft | 293 kts | 20° |
| 2026-05-07 13:38 | 50.15444 | 19.63419 | 8455 ft | 299 kts | 32° |
| 2026-05-07 13:38 | 50.17087 | 19.65441 | 9281 ft | 303 kts | 40° |
| 2026-05-07 13:38 | 50.18703 | 19.67595 | 10095 ft | 308 kts | 40° |
| 2026-05-07 13:38 | 50.20389 | 19.69850 | 10423 ft | 331 kts | 40° |
| 2026-05-07 13:39 | 50.22192 | 19.72275 | 10629 ft | 354 kts | 40° |
| 2026-05-07 13:39 | 50.24116 | 19.74878 | 10778 ft | 378 kts | 41° |
| 2026-05-07 13:39 | 50.26156 | 19.77651 | 10983 ft | 396 kts | 41° |
| 2026-05-07 13:39 | 50.28255 | 19.80515 | 11535 ft | 403 kts | 41° |
| 2026-05-07 13:40 | 50.29660 | 19.82434 | 11952 ft | 407 kts | 41° |
| 2026-05-07 13:40 | 50.31804 | 19.85369 | 12582 ft | 411 kts | 41° |
| 2026-05-07 13:40 | 50.33966 | 19.88334 | 13197 ft | 415 kts | 41° |
| 2026-05-07 13:40 | 50.36867 | 19.92310 | 13963 ft | 421 kts | 41° |
| 2026-05-07 13:41 | 50.39083 | 19.95344 | 14487 ft | 425 kts | 41° |
| 2026-05-07 13:41 | 50.40593 | 19.97413 | 14839 ft | 428 kts | 41° |
| 2026-05-07 13:41 | 50.42837 | 20.00498 | 15364 ft | 431 kts | 41° |
| 2026-05-07 13:41 | 50.45102 | 20.03621 | 15874 ft | 435 kts | 41° |
| 2026-05-07 13:42 | 50.47385 | 20.06767 | 16385 ft | 439 kts | 41° |
| 2026-05-07 13:42 | 50.49686 | 20.09941 | 16896 ft | 442 kts | 41° |
| 2026-05-07 13:42 | 50.52003 | 20.13146 | 17391 ft | 446 kts | 41° |
| 2026-05-07 13:42 | 50.54340 | 20.16381 | 17895 ft | 449 kts | 41° |
| 2026-05-07 13:43 | 50.56764 | 20.19514 | 18345 ft | 453 kts | 35° |
| 2026-05-07 13:43 | 50.59468 | 20.22084 | 18749 ft | 456 kts | 26° |
| 2026-05-07 13:43 | 50.62369 | 20.23959 | 19148 ft | 458 kts | 17° |
| 2026-05-07 13:43 | 50.65356 | 20.25761 | 19548 ft | 462 kts | 25° |
| 2026-05-07 13:44 | 50.68163 | 20.28253 | 19946 ft | 465 kts | 31° |
| 2026-05-07 13:44 | 50.70934 | 20.30913 | 20352 ft | 468 kts | 31° |
| 2026-05-07 13:44 | 50.73724 | 20.33596 | 20740 ft | 471 kts | 31° |
| 2026-05-07 13:44 | 50.76533 | 20.36289 | 21123 ft | 474 kts | 31° |
| 2026-05-07 13:45 | 50.79363 | 20.38986 | 21496 ft | 476 kts | 31° |
| 2026-05-07 13:45 | 50.82212 | 20.41691 | 21857 ft | 479 kts | 31° |
| 2026-05-07 13:45 | 50.85081 | 20.44413 | 22207 ft | 482 kts | 31° |
| 2026-05-07 13:45 | 50.87966 | 20.47153 | 22564 ft | 485 kts | 31° |
| 2026-05-07 13:46 | 50.90867 | 20.49918 | 22923 ft | 488 kts | 31° |
| 2026-05-07 13:46 | 50.93785 | 20.52711 | 23264 ft | 491 kts | 31° |
| 2026-05-07 13:46 | 50.96717 | 20.55527 | 23592 ft | 494 kts | 31° |
| 2026-05-07 13:46 | 50.99658 | 20.58353 | 23872 ft | 496 kts | 31° |
| 2026-05-07 13:47 | 51.02617 | 20.61201 | 24136 ft | 498 kts | 31° |
| 2026-05-07 13:47 | 51.05589 | 20.64061 | 24402 ft | 501 kts | 31° |
| 2026-05-07 13:47 | 51.08577 | 20.66941 | 24671 ft | 503 kts | 31° |
| 2026-05-07 13:47 | 51.11576 | 20.69835 | 24932 ft | 505 kts | 31° |
| 2026-05-07 13:48 | 51.14586 | 20.72740 | 25198 ft | 507 kts | 31° |
| 2026-05-07 13:48 | 51.17609 | 20.75659 | 25440 ft | 509 kts | 32° |
| 2026-05-07 13:48 | 51.20638 | 20.78596 | 25785 ft | 509 kts | 32° |
| 2026-05-07 13:48 | 51.23664 | 20.81537 | 26148 ft | 509 kts | 32° |
| 2026-05-07 13:49 | 51.26683 | 20.84477 | 26509 ft | 509 kts | 32° |
| 2026-05-07 13:49 | 51.29702 | 20.87418 | 26873 ft | 508 kts | 32° |
| 2026-05-07 13:49 | 51.32684 | 20.90328 | 27232 ft | 508 kts | 32° |
| 2026-05-07 13:49 | 51.35699 | 20.93277 | 27589 ft | 508 kts | 32° |
| 2026-05-07 13:50 | 51.38712 | 20.96228 | 27959 ft | 509 kts | 32° |
| 2026-05-07 13:50 | 51.41734 | 20.99188 | 28308 ft | 509 kts | 32° |
| 2026-05-07 13:50 | 51.44751 | 21.02149 | 28670 ft | 509 kts | 32° |
| 2026-05-07 13:50 | 51.47770 | 21.05118 | 29024 ft | 509 kts | 32° |
| 2026-05-07 13:51 | 51.50790 | 21.08095 | 29404 ft | 509 kts | 32° |
| 2026-05-07 13:51 | 51.53804 | 21.11074 | 29778 ft | 509 kts | 33° |
| 2026-05-07 13:51 | 51.56818 | 21.14054 | 30130 ft | 509 kts | 33° |
| 2026-05-07 13:51 | 51.59831 | 21.17035 | 30464 ft | 508 kts | 33° |
| 2026-05-07 13:52 | 51.62837 | 21.20012 | 30803 ft | 507 kts | 32° |
| 2026-05-07 13:52 | 51.65834 | 21.22983 | 31161 ft | 506 kts | 32° |
| 2026-05-07 13:52 | 51.68824 | 21.25952 | 31523 ft | 504 kts | 32° |
| 2026-05-07 13:52 | 51.71805 | 21.28921 | 31882 ft | 503 kts | 32° |
| 2026-05-07 13:53 | 51.74777 | 21.31892 | 32243 ft | 501 kts | 32° |
| 2026-05-07 13:53 | 51.77740 | 21.34859 | 32587 ft | 500 kts | 32° |
| 2026-05-07 13:53 | 51.80688 | 21.37812 | 32874 ft | 499 kts | 32° |
| 2026-05-07 13:54 | 51.86626 | 21.43769 | 32932 ft | 505 kts | 32° |
| 2026-05-07 13:54 | 51.92552 | 21.49733 | 32930 ft | 505 kts | 32° |
| 2026-05-07 13:55 | 51.98524 | 21.55750 | 32927 ft | 505 kts | 32° |
| 2026-05-07 13:55 | 52.04500 | 21.61801 | 32928 ft | 507 kts | 32° |
| 2026-05-07 13:56 | 52.10490 | 21.67893 | 32931 ft | 508 kts | 32° |
| 2026-05-07 13:56 | 52.16487 | 21.73996 | 32925 ft | 508 kts | 32° |
| 2026-05-07 13:57 | 52.22478 | 21.80115 | 32936 ft | 508 kts | 32° |
| 2026-05-07 13:57 | 52.28462 | 21.86252 | 32920 ft | 509 kts | 32° |
| 2026-05-07 13:58 | 52.34453 | 21.92420 | 32907 ft | 509 kts | 32° |
| 2026-05-07 13:58 | 52.40449 | 21.98623 | 32904 ft | 509 kts | 32° |
| 2026-05-07 13:59 | 52.46441 | 22.04831 | 32908 ft | 510 kts | 32° |
| 2026-05-07 13:59 | 52.52441 | 22.11057 | 32904 ft | 510 kts | 32° |
| 2026-05-07 14:00 | 52.58436 | 22.17306 | 32900 ft | 511 kts | 32° |
| 2026-05-07 14:00 | 52.64437 | 22.23576 | 32904 ft | 511 kts | 32° |
| 2026-05-07 14:01 | 52.70389 | 22.29825 | 32906 ft | 511 kts | 32° |
| 2026-05-07 14:01 | 52.76395 | 22.36145 | 32909 ft | 511 kts | 32° |
| 2026-05-07 14:02 | 52.82390 | 22.42477 | 32905 ft | 511 kts | 32° |
| 2026-05-07 14:02 | 52.88380 | 22.48820 | 32910 ft | 511 kts | 32° |
| 2026-05-07 14:03 | 52.94373 | 22.55188 | 32903 ft | 512 kts | 32° |
| 2026-05-07 14:03 | 53.00360 | 22.61588 | 32901 ft | 512 kts | 32° |
| 2026-05-07 14:04 | 53.06348 | 22.68001 | 32899 ft | 512 kts | 32° |
| 2026-05-07 14:04 | 53.12337 | 22.74432 | 32899 ft | 513 kts | 32° |
| 2026-05-07 14:05 | 53.18327 | 22.80891 | 32893 ft | 513 kts | 32° |
| 2026-05-07 14:05 | 53.24318 | 22.87376 | 32895 ft | 513 kts | 32° |
| 2026-05-07 14:06 | 53.30455 | 22.93250 | 32908 ft | 510 kts | 20° |
| 2026-05-07 14:06 | 53.37155 | 22.97004 | 32899 ft | 507 kts | 14° |
| 2026-05-07 14:07 | 53.43890 | 23.00561 | 32904 ft | 508 kts | 14° |
| 2026-05-07 14:07 | 53.50625 | 23.04166 | 32899 ft | 507 kts | 14° |
| 2026-05-07 14:08 | 53.57353 | 23.07769 | 32913 ft | 507 kts | 14° |
| 2026-05-07 14:08 | 53.64076 | 23.11379 | 32912 ft | 507 kts | 14° |
| 2026-05-07 14:09 | 53.70804 | 23.15000 | 32909 ft | 507 kts | 14° |
| 2026-05-07 14:09 | 53.77522 | 23.18616 | 32907 ft | 507 kts | 14° |
| 2026-05-07 14:10 | 53.84244 | 23.22252 | 32908 ft | 507 kts | 14° |
| 2026-05-07 14:10 | 53.90961 | 23.25922 | 32912 ft | 507 kts | 14° |
| 2026-05-07 14:10 | 53.94232 | 23.28195 | 32911 ft | 511 kts | 27° |
| 2026-05-07 14:11 | 53.97126 | 23.31715 | 32917 ft | 514 kts | 43° |
| 2026-05-07 14:11 | 53.99520 | 23.36117 | 32282 ft | 515 kts | 50° |
| 2026-05-07 14:11 | 54.01829 | 23.40768 | 30892 ft | 515 kts | 51° |
| 2026-05-07 14:11 | 54.04093 | 23.45501 | 29518 ft | 514 kts | 51° |
| 2026-05-07 14:12 | 54.06256 | 23.50329 | 28304 ft | 515 kts | 57° |
| 2026-05-07 14:12 | 54.08056 | 23.55607 | 27214 ft | 516 kts | 65° |
| 2026-05-07 14:12 | 54.09544 | 23.61192 | 25956 ft | 520 kts | 68° |
| 2026-05-07 14:12 | 54.11018 | 23.66861 | 24623 ft | 527 kts | 68° |
| 2026-05-07 14:13 | 54.12524 | 23.72580 | 23532 ft | 528 kts | 67° |
| 2026-05-07 14:13 | 54.14019 | 23.78226 | 22829 ft | 517 kts | 67° |
| 2026-05-07 14:13 | 54.15486 | 23.83777 | 21988 ft | 510 kts | 67° |
| 2026-05-07 14:13 | 54.16924 | 23.89267 | 21184 ft | 503 kts | 67° |
| 2026-05-07 14:14 | 54.18321 | 23.94663 | 20082 ft | 490 kts | 68° |
| 2026-05-07 14:14 | 54.19686 | 23.99974 | 18847 ft | 484 kts | 68° |
| 2026-05-07 14:14 | 54.21014 | 24.05170 | 18073 ft | 474 kts | 68° |
| 2026-05-07 14:14 | 54.22326 | 24.10322 | 17215 ft | 471 kts | 68° |
| 2026-05-07 14:15 | 54.23625 | 24.15431 | 16460 ft | 467 kts | 68° |
| 2026-05-07 14:15 | 54.24917 | 24.20503 | 15745 ft | 462 kts | 67° |
| 2026-05-07 14:15 | 54.26266 | 24.25461 | 14972 ft | 460 kts | 61° |
| 2026-05-07 14:15 | 54.28056 | 24.29955 | 14256 ft | 456 kts | 50° |
| 2026-05-07 14:16 | 54.30267 | 24.33791 | 13549 ft | 450 kts | 39° |
| 2026-05-07 14:16 | 54.32810 | 24.36813 | 13061 ft | 440 kts | 27° |
| 2026-05-07 14:16 | 54.35567 | 24.39070 | 12814 ft | 440 kts | 22° |
| 2026-05-07 14:16 | 54.38349 | 24.41281 | 12318 ft | 441 kts | 28° |
| 2026-05-07 14:17 | 54.40709 | 24.44397 | 11764 ft | 416 kts | 45° |
| 2026-05-07 14:17 | 54.42376 | 24.48146 | 11562 ft | 385 kts | 60° |
| 2026-05-07 14:17 | 54.43423 | 24.52170 | 11433 ft | 355 kts | 74° |
| 2026-05-07 14:17 | 54.43924 | 24.56247 | 10708 ft | 347 kts | 88° |
| 2026-05-07 14:18 | 54.44068 | 24.60371 | 9902 ft | 345 kts | 89° |
| 2026-05-07 14:18 | 54.44195 | 24.64470 | 9131 ft | 341 kts | 89° |
| 2026-05-07 14:18 | 54.44318 | 24.68471 | 8596 ft | 329 kts | 89° |
| 2026-05-07 14:18 | 54.44440 | 24.72326 | 8191 ft | 316 kts | 89° |
| 2026-05-07 14:19 | 54.44559 | 24.76028 | 7884 ft | 308 kts | 89° |
| 2026-05-07 14:19 | 54.44675 | 24.79699 | 7484 ft | 307 kts | 89° |
| 2026-05-07 14:19 | 54.44790 | 24.83339 | 7148 ft | 303 kts | 89° |
| 2026-05-07 14:19 | 54.44902 | 24.86960 | 6705 ft | 304 kts | 89° |
| 2026-05-07 14:20 | 54.45012 | 24.90588 | 6312 ft | 303 kts | 89° |
| 2026-05-07 14:20 | 54.45122 | 24.94203 | 5905 ft | 301 kts | 89° |
| 2026-05-07 14:20 | 54.45233 | 24.97786 | 5512 ft | 299 kts | 89° |
| 2026-05-07 14:20 | 54.45340 | 25.01341 | 5117 ft | 297 kts | 89° |
| 2026-05-07 14:21 | 54.45448 | 25.04893 | 4575 ft | 300 kts | 88° |
| 2026-05-07 14:21 | 54.45555 | 25.08416 | 4320 ft | 286 kts | 88° |
| 2026-05-07 14:21 | 54.45656 | 25.11701 | 4194 ft | 265 kts | 87° |
| 2026-05-07 14:21 | 54.46056 | 25.14652 | 4096 ft | 249 kts | 63° |
| 2026-05-07 14:22 | 54.47078 | 25.16971 | 3877 ft | 245 kts | 37° |
| 2026-05-07 14:22 | 54.48560 | 25.18367 | 3518 ft | 243 kts | 18° |
| 2026-05-07 14:22 | 54.50087 | 25.19392 | 3200 ft | 233 kts | 18° |
| 2026-05-07 14:22 | 54.51563 | 25.20393 | 2880 ft | 222 kts | 19° |
| 2026-05-07 14:23 | 54.52968 | 25.21354 | 2594 ft | 212 kts | 18° |
| 2026-05-07 14:23 | 54.54284 | 25.22262 | 2332 ft | 194 kts | 18° |
| 2026-05-07 14:23 | 54.55473 | 25.23086 | 2091 ft | 174 kts | 18° |
| 2026-05-07 14:23 | 54.56530 | 25.23823 | 1874 ft | 156 kts | 17° |
| 2026-05-07 14:24 | 54.57490 | 25.24490 | 1663 ft | 142 kts | 18° |
| 2026-05-07 14:24 | 54.58384 | 25.25109 | 1475 ft | 136 kts | 17° |
| 2026-05-07 14:24 | 54.59256 | 25.25708 | 1303 ft | 135 kts | 18° |
| 2026-05-07 14:24 | 54.60133 | 25.26306 | 1112 ft | 135 kts | 18° |
| 2026-05-07 14:25 | 54.61010 | 25.26907 | 957 ft | 136 kts | 19° |
| 2026-05-07 14:25 | 54.61886 | 25.27538 | 748 ft | 137 kts | 20° |
| 2026-05-07 14:25 | 54.62766 | 25.28142 | 609 ft | 135 kts | 18° |
| 2026-05-07 14:25 | 54.63520 | 25.28646 | 618 ft | 84 kts | 22° |
| 2026-05-07 14:26 | 54.63874 | 25.28741 | 637 ft | 34 kts | 353° |
| 2026-05-07 14:26 | 54.63987 | 25.28720 | 641 ft | 5 kts | 355° |
| 2026-05-07 14:26 | 54.63991 | 25.28720 | 641 ft | 1 kts | 354° |
| 2026-05-07 14:26 | 54.64024 | 25.28714 | 643 ft | 9 kts | 354° |
| 2026-05-07 14:27 | 54.64094 | 25.28701 | 645 ft | 4 kts | 354° |
| 2026-05-07 14:27 | 54.64116 | 25.28698 | 646 ft | 7 kts | 354° |
| 2026-05-07 14:27 | 54.64192 | 25.28685 | 648 ft | 14 kts | 354° |
| 2026-05-07 14:27 | 54.64301 | 25.28667 | 650 ft | 17 kts | 353° |
| 2026-05-07 14:28 | 54.64425 | 25.28637 | 651 ft | 17 kts | 350° |
| 2026-05-07 14:28 | 54.64504 | 25.28559 | 649 ft | 10 kts | 280° |
| 2026-05-07 14:28 | 54.64492 | 25.28446 | 644 ft | 11 kts | 257° |
| 2026-05-07 14:28 | 54.64468 | 25.28312 | 646 ft | 11 kts | 234° |
| 2026-05-07 14:29 | 54.64449 | 25.28230 | 639 ft | 4 kts | 274° |
| 2026-05-07 14:29 | 54.64451 | 25.28217 | 637 ft | 1 kts | 283° |
| 2026-05-07 14:29 | 54.64452 | 25.28206 | 637 ft | 1 kts | 277° |
| 2026-05-07 14:29 | 54.64451 | 25.28188 | 637 ft | 1 kts | 269° |
| 2026-05-07 14:30 | 54.64451 | 25.28184 | 637 ft | 0 kts | 269° |